Time;durP1;ratioP1;P1;durP2;ratioP2;P2;SDS_P1;SDS_P2;PMS_P1;PMS_P2;Temp;Humidity;BMP_temperature;BMP_pressure;BME280_temperature;BME280_humidity;BME280_pressure;Samples;Min_cycle;Max_cycle;Signal;HPM_P1;HPM_P2
2022/07/05 00:02:42;;;;;;;0.45;0.45;;;17.10;99.90;;;;;;5094949;28;20700;-72
2022/07/05 00:05:31;;;;;;;0.50;0.50;;;17.10;99.90;;;;;;5095253;28;20219;-71
2022/07/05 00:08:19;;;;;;;0.50;0.50;;;17.00;99.90;;;;;;5095410;28;20204;-71
2022/07/05 00:11:07;;;;;;;0.50;0.50;;;17.00;99.90;;;;;;5095267;28;20203;-72
2022/07/05 00:13:56;;;;;;;0.45;0.45;;;17.00;99.90;;;;;;5095729;28;20649;-71
2022/07/05 00:16:45;;;;;;;0.43;0.43;;;16.90;99.90;;;;;;5094188;28;20277;-74
2022/07/05 00:19:33;;;;;;;0.50;0.50;;;16.90;99.90;;;;;;5094616;28;20257;-72
2022/07/05 00:22:22;;;;;;;0.50;0.50;;;16.80;99.90;;;;;;5094341;28;20257;-72
2022/07/05 00:25:16;;;;;;;0.50;0.50;;;16.70;99.90;;;;;;5095796;28;20646;-74
2022/07/05 00:28:05;;;;;;;0.50;0.50;;;16.70;99.90;;;;;;5094605;28;20211;-73
2022/07/05 00:30:53;;;;;;;1.67;1.58;;;16.60;99.90;;;;;;5094469;28;20232;-73
2022/07/05 00:33:43;;;;;;;0.50;0.50;;;16.60;99.90;;;;;;5093966;28;20223;-73
2022/07/05 00:36:31;;;;;;;0.50;0.50;;;16.60;99.90;;;;;;5095095;28;20223;-75
2022/07/05 00:39:23;;;;;;;0.60;0.60;;;16.50;99.90;;;;;;5094917;28;20231;-73
2022/07/05 00:42:11;;;;;;;0.40;0.40;;;16.50;99.90;;;;;;5094305;28;20274;-73
2022/07/05 00:44:59;;;;;;;0.50;0.50;;;16.50;99.90;;;;;;5094529;28;20704;-73
2022/07/05 00:47:47;;;;;;;0.50;0.50;;;16.50;99.90;;;;;;5094583;28;20684;-74
2022/07/05 00:50:37;;;;;;;2.30;2.22;;;16.50;99.90;;;;;;5094290;28;20246;-73
2022/07/05 00:53:31;;;;;;;0.50;0.50;;;16.50;99.90;;;;;;5093934;28;20196;-71
2022/07/05 00:56:21;;;;;;;0.50;0.50;;;16.50;99.90;;;;;;5093877;28;20227;-73
2022/07/05 00:59:09;;;;;;;0.50;0.50;;;16.50;99.90;;;;;;5093046;28;20553;-73
2022/07/05 01:01:58;;;;;;;0.50;0.50;;;16.40;99.90;;;;;;5095156;28;20672;-72
2022/07/05 01:04:47;;;;;;;0.50;0.50;;;16.40;99.90;;;;;;5094619;28;20246;-74
2022/07/05 01:07:36;;;;;;;0.50;0.50;;;16.40;99.90;;;;;;5094044;28;20204;-71
2022/07/05 01:10:25;;;;;;;0.50;0.50;;;16.40;99.90;;;;;;5093263;28;20204;-74
2022/07/05 01:13:14;;;;;;;0.50;0.50;;;16.30;99.90;;;;;;5093662;28;20211;-71
2022/07/05 01:16:03;;;;;;;0.50;0.50;;;16.20;99.90;;;;;;5093184;28;20251;-73
2022/07/05 01:18:51;;;;;;;0.50;0.50;;;16.20;99.90;;;;;;5094909;28;20211;-71
2022/07/05 01:21:42;;;;;;;0.40;0.40;;;16.10;99.90;;;;;;5092980;28;20265;-72
2022/07/05 01:24:32;;;;;;;0.50;0.50;;;16.10;99.90;;;;;;5092884;28;20203;-75
2022/07/05 01:27:21;;;;;;;0.50;0.50;;;16.00;99.90;;;;;;5096702;28;20256;-71
2022/07/05 01:30:10;;;;;;;0.40;0.40;;;15.90;99.90;;;;;;5113675;28;20621;-73
2022/07/05 01:32:59;;;;;;;0.50;0.50;;;15.80;99.90;;;;;;5113889;28;20191;-74
2022/07/05 01:35:47;;;;;;;0.68;0.68;;;15.80;99.90;;;;;;5113892;28;20219;-73
2022/07/05 01:38:35;;;;;;;0.50;0.50;;;15.70;99.90;;;;;;5114158;28;20229;-73
2022/07/05 01:41:25;;;;;;;0.40;0.40;;;15.70;99.90;;;;;;5113874;28;20206;-74
2022/07/05 01:44:13;;;;;;;0.50;0.50;;;15.70;99.90;;;;;;5114034;28;20215;-74
2022/07/05 01:47:06;;;;;;;0.50;0.50;;;15.60;99.90;;;;;;5113434;28;20700;-73
2022/07/05 01:49:58;;;;;;;0.50;0.50;;;15.60;99.90;;;;;;5113774;28;20210;-72
2022/07/05 01:52:48;;;;;;;0.50;0.50;;;15.60;99.90;;;;;;5113973;28;20680;-71
2022/07/05 01:55:37;;;;;;;0.50;0.50;;;15.60;99.90;;;;;;5101023;28;20227;-73
2022/07/05 01:58:27;;;;;;;0.50;0.50;;;15.60;99.90;;;;;;5092183;28;20222;-72
2022/07/05 02:01:15;;;;;;;0.50;0.50;;;15.50;99.90;;;;;;5091389;28;20192;-71
2022/07/05 02:04:05;;;;;;;0.40;0.40;;;15.40;99.90;;;;;;5092542;28;20303;-74
2022/07/05 02:06:53;;;;;;;0.40;0.40;;;15.40;99.90;;;;;;5093823;28;20602;-74
2022/07/05 02:09:41;;;;;;;0.50;0.50;;;15.30;99.90;;;;;;5091447;28;20204;-73
2022/07/05 02:12:29;;;;;;;0.50;0.50;;;15.20;99.90;;;;;;5092400;28;20287;-75
2022/07/05 02:15:19;;;;;;;0.60;0.60;;;15.20;99.90;;;;;;5092047;28;20251;-73
2022/07/05 02:18:08;;;;;;;0.50;0.50;;;15.10;99.90;;;;;;5092034;28;20249;-72
2022/07/05 02:20:56;;;;;;;0.50;0.50;;;15.00;99.90;;;;;;5091429;28;20204;-74
2022/07/05 02:23:45;;;;;;;0.50;0.50;;;15.10;99.90;;;;;;5092364;28;20631;-74
2022/07/05 02:26:33;;;;;;;0.50;0.50;;;14.90;99.90;;;;;;5091666;28;20215;-74
2022/07/05 02:29:21;;;;;;;0.60;0.60;;;14.90;99.90;;;;;;5091729;28;20586;-73
2022/07/05 02:32:10;;;;;;;0.50;0.50;;;14.80;99.90;;;;;;5092149;28;20192;-74
2022/07/05 02:34:58;;;;;;;0.50;0.50;;;14.70;99.90;;;;;;5091731;28;20303;-72
2022/07/05 02:37:46;;;;;;;0.50;0.50;;;14.80;99.90;;;;;;5091786;28;20246;-73
2022/07/05 02:40:35;;;;;;;0.50;0.50;;;14.60;99.90;;;;;;5090881;28;20660;-72
2022/07/05 02:43:23;;;;;;;0.50;0.50;;;14.60;99.90;;;;;;5092248;28;20216;-73
2022/07/05 02:46:11;;;;;;;0.60;0.60;;;14.60;99.90;;;;;;5092240;28;20216;-71
2022/07/05 02:49:00;;;;;;;0.50;0.50;;;14.70;99.90;;;;;;5091545;28;20200;-74
2022/07/05 02:51:48;;;;;;;0.50;0.50;;;14.60;99.90;;;;;;5092301;28;20245;-73
2022/07/05 02:54:36;;;;;;;0.50;0.50;;;14.60;99.90;;;;;;5091558;28;20192;-74
2022/07/05 02:57:24;;;;;;;0.50;0.50;;;14.70;99.90;;;;;;5092011;28;20192;-73
2022/07/05 03:00:13;;;;;;;0.50;0.50;;;14.60;99.90;;;;;;5114059;28;20260;-71
2022/07/05 03:03:01;;;;;;;0.77;0.77;;;14.50;99.90;;;;;;5115622;28;20422;-71
2022/07/05 03:05:51;;;;;;;0.50;0.50;;;14.50;99.90;;;;;;5112826;28;20220;-72
2022/07/05 03:08:39;;;;;;;0.70;0.70;;;14.50;99.90;;;;;;5106378;28;20207;-73
2022/07/05 03:11:27;;;;;;;0.50;0.50;;;14.40;99.90;;;;;;5103694;28;20679;-71
2022/07/05 03:14:15;;;;;;;1.00;1.00;;;14.40;99.90;;;;;;5109036;28;20582;-72
2022/07/05 03:17:04;;;;;;;0.60;0.60;;;14.30;99.90;;;;;;5102016;28;20679;-70
2022/07/05 03:19:52;;;;;;;0.53;0.53;;;14.40;99.90;;;;;;5107726;28;20199;-72
2022/07/05 03:22:43;;;;;;;0.50;0.50;;;14.40;99.90;;;;;;5089660;28;20550;-72
2022/07/05 03:25:31;;;;;;;0.50;0.50;;;14.40;99.90;;;;;;5092802;28;20224;-72
2022/07/05 03:28:20;;;;;;;0.50;0.50;;;14.40;99.90;;;;;;5113269;28;20203;-71
2022/07/05 03:31:08;;;;;;;0.50;0.50;;;14.50;99.90;;;;;;5115870;28;20214;-71
2022/07/05 03:33:57;;;;;;;0.40;0.40;;;14.50;99.90;;;;;;5116112;28;20205;-70
2022/07/05 03:36:45;;;;;;;0.80;0.80;;;14.60;99.90;;;;;;5115150;28;20230;-72
2022/07/05 03:39:34;;;;;;;0.50;0.50;;;14.60;99.90;;;;;;5115499;27;20207;-70
2022/07/05 03:42:23;;;;;;;0.50;0.50;;;14.60;99.90;;;;;;5116385;27;20671;-72
2022/07/05 03:45:11;;;;;;;0.50;0.50;;;14.60;99.90;;;;;;5116143;27;20460;-70
2022/07/05 03:47:59;;;;;;;0.50;0.50;;;14.70;99.90;;;;;;5115829;28;20907;-71
2022/07/05 03:51:08;;;;;;;0.50;0.50;;;14.70;99.90;;;;;;5119436;27;20799;-71
2022/07/05 03:53:56;;;;;;;0.70;0.63;;;14.70;99.90;;;;;;5121832;28;20198;-71
2022/07/05 03:56:45;;;;;;;0.50;0.50;;;14.80;99.90;;;;;;5120848;28;20218;-71
2022/07/05 03:59:33;;;;;;;0.50;0.50;;;14.80;99.90;;;;;;5119819;28;20209;-71
2022/07/05 04:02:22;;;;;;;0.50;0.50;;;14.70;99.90;;;;;;5120540;28;20198;-72
2022/07/05 04:05:10;;;;;;;0.50;0.50;;;14.80;99.90;;;;;;5122418;28;20469;-69
2022/07/05 04:07:58;;;;;;;0.50;0.50;;;14.90;99.90;;;;;;5124133;28;20214;-72
2022/07/05 04:10:46;;;;;;;0.50;0.50;;;15.00;99.90;;;;;;5125390;27;20202;-73
2022/07/05 04:13:36;;;;;;;0.50;0.50;;;15.00;99.90;;;;;;5121923;28;20199;-74
2022/07/05 04:16:25;;;;;;;0.50;0.50;;;15.10;99.90;;;;;;5123495;27;20306;-69
2022/07/05 04:19:14;;;;;;;0.60;0.60;;;15.20;99.90;;;;;;5121265;28;20207;-70
2022/07/05 04:22:02;;;;;;;0.50;0.50;;;15.20;99.90;;;;;;5122712;28;20205;-69
2022/07/05 04:27:56;;;;;;;0.50;0.50;;;15.30;99.90;;;;;;5123243;28;20258;-70
2022/07/05 04:30:46;;;;;;;0.50;0.50;;;15.30;99.90;;;;;;5116471;28;20199;-70
2022/07/05 04:33:34;;;;;;;0.50;0.50;;;15.40;99.90;;;;;;5113907;28;20203;-69
2022/07/05 04:36:22;;;;;;;0.50;0.50;;;15.40;99.90;;;;;;5115519;27;20250;-70
2022/07/05 04:39:10;;;;;;;0.50;0.50;;;15.50;99.90;;;;;;5112916;28;20691;-73
2022/07/05 04:41:58;;;;;;;0.50;0.50;;;15.40;99.90;;;;;;5114437;28;20203;-70
2022/07/05 04:44:46;;;;;;;0.50;0.50;;;15.60;99.90;;;;;;5114301;28;20219;-71
2022/07/05 04:47:36;;;;;;;0.50;0.50;;;15.60;99.90;;;;;;5115202;28;20196;-70
2022/07/05 04:50:24;;;;;;;0.50;0.50;;;15.60;99.90;;;;;;5113672;28;20250;-70
2022/07/05 04:53:12;;;;;;;0.65;0.65;;;15.80;99.90;;;;;;5114097;28;20555;-70
2022/07/05 04:56:00;;;;;;;0.50;0.50;;;15.90;99.90;;;;;;5113944;28;20219;-70
2022/07/05 04:58:48;;;;;;;0.50;0.50;;;16.00;99.90;;;;;;5114047;28;20204;-70
2022/07/05 05:01:36;;;;;;;0.50;0.50;;;16.00;99.90;;;;;;5116216;28;20203;-71
2022/07/05 05:04:26;;;;;;;0.50;0.50;;;16.00;99.90;;;;;;5115354;28;20219;-71
2022/07/05 05:07:14;;;;;;;0.60;0.60;;;16.10;99.90;;;;;;5109742;28;20195;-73
2022/07/05 05:10:02;;;;;;;0.50;0.50;;;16.20;99.90;;;;;;5111056;28;20230;-71
2022/07/05 05:12:50;;;;;;;0.85;0.82;;;16.10;99.90;;;;;;5114695;28;20206;-69
2022/07/05 05:15:38;;;;;;;0.47;0.47;;;16.20;99.90;;;;;;5113757;28;20242;-70
2022/07/05 05:18:27;;;;;;;0.50;0.50;;;16.30;99.90;;;;;;5114351;28;20594;-71
2022/07/05 05:21:16;;;;;;;0.70;0.60;;;16.40;99.90;;;;;;5113683;28;20232;-72
2022/07/05 05:24:05;;;;;;;0.50;0.50;;;16.40;99.90;;;;;;5113845;28;20614;-71
2022/07/05 05:26:53;;;;;;;0.60;0.60;;;16.50;99.90;;;;;;5114277;28;20691;-71
2022/07/05 05:29:41;;;;;;;0.50;0.50;;;16.50;99.90;;;;;;5113262;28;20248;-71
2022/07/05 05:32:30;;;;;;;0.40;0.40;;;16.60;99.90;;;;;;5112654;28;20221;-70
2022/07/05 05:35:20;;;;;;;0.50;0.50;;;16.70;99.90;;;;;;5113828;28;20218;-69
2022/07/05 05:38:10;;;;;;;0.50;0.50;;;16.70;99.90;;;;;;5113798;28;20392;-70
2022/07/05 05:40:58;;;;;;;0.50;0.50;;;16.90;99.90;;;;;;5113156;28;20319;-70
2022/07/05 05:43:46;;;;;;;0.50;0.50;;;16.90;99.90;;;;;;5112461;28;20195;-71
2022/07/05 05:46:34;;;;;;;0.50;0.50;;;17.00;99.90;;;;;;5113089;28;20284;-70
2022/07/05 05:49:22;;;;;;;0.50;0.50;;;17.10;99.90;;;;;;5113695;28;20199;-69
2022/07/05 05:52:10;;;;;;;0.50;0.50;;;17.20;99.90;;;;;;5112860;28;20218;-71
2022/07/05 05:55:00;;;;;;;0.40;0.40;;;17.30;99.90;;;;;;5112212;28;20231;-70
2022/07/05 05:57:49;;;;;;;0.50;0.50;;;17.40;99.90;;;;;;5113235;28;20260;-70
2022/07/05 06:00:37;;;;;;;0.50;0.50;;;17.50;99.90;;;;;;5110331;28;20195;-72
2022/07/05 06:03:27;;;;;;;0.50;0.50;;;17.70;99.90;;;;;;5108752;28;20207;-70
2022/07/05 06:06:15;;;;;;;0.50;0.50;;;17.60;99.90;;;;;;5091488;28;20227;-70
2022/07/05 06:09:03;;;;;;;0.50;0.50;;;17.70;99.90;;;;;;5104992;28;20198;-70
2022/07/05 06:11:53;;;;;;;0.50;0.50;;;17.80;99.90;;;;;;5111225;28;20248;-70
2022/07/05 06:14:41;;;;;;;0.50;0.50;;;17.80;99.90;;;;;;5111599;28;20199;-69
2022/07/05 06:17:29;;;;;;;0.50;0.50;;;17.90;99.90;;;;;;5111306;28;20202;-70
2022/07/05 06:20:19;;;;;;;0.50;0.50;;;18.00;99.90;;;;;;5105644;28;20196;-70
2022/07/05 06:23:08;;;;;;;0.50;0.50;;;18.10;99.90;;;;;;5091487;28;20211;-70
2022/07/05 06:25:56;;;;;;;2.72;2.53;;;18.10;99.90;;;;;;5091098;28;20227;-70
2022/07/05 06:28:45;;;;;;;0.50;0.50;;;18.20;99.90;;;;;;5089811;28;20200;-74
2022/07/05 06:31:34;;;;;;;0.82;0.80;;;18.20;99.90;;;;;;5091945;28;20238;-69
2022/07/05 06:34:22;;;;;;;0.60;0.60;;;18.20;99.90;;;;;;5092823;28;20279;-72
2022/07/05 06:37:10;;;;;;;0.50;0.50;;;18.20;99.90;;;;;;5094461;28;20199;-72
2022/07/05 06:39:58;;;;;;;0.50;0.50;;;18.30;99.90;;;;;;5102789;28;20622;-70
2022/07/05 06:42:47;;;;;;;0.50;0.50;;;18.40;99.90;;;;;;5097112;28;20192;-70
2022/07/05 06:45:36;;;;;;;0.50;0.50;;;18.50;99.90;;;;;;5089751;28;20739;-72
2022/07/05 06:48:24;;;;;;;0.50;0.50;;;18.60;99.90;;;;;;5089969;28;20272;-70
2022/07/05 06:51:12;;;;;;;0.50;0.50;;;18.70;99.90;;;;;;5090004;28;20642;-71
2022/07/05 06:54:00;;;;;;;0.50;0.50;;;18.80;99.90;;;;;;5089752;28;20200;-71
2022/07/05 06:56:55;;;;;;;0.52;0.52;;;18.80;99.90;;;;;;5090718;28;20223;-71
2022/07/05 07:00:04;;;;;;;0.50;0.50;;;18.80;99.90;;;;;;5093159;28;20283;-70
2022/07/05 07:03:13;;;;;;;0.40;0.40;;;18.90;99.90;;;;;;5094181;28;20336;-71
2022/07/05 07:06:22;;;;;;;1.60;1.55;;;18.90;99.90;;;;;;5094890;28;20228;-73
2022/07/05 07:09:18;;;;;;;0.55;0.55;;;19.00;99.90;;;;;;5107990;28;20211;-72
2022/07/05 07:12:07;;;;;;;0.50;0.50;;;19.00;99.90;;;;;;5114714;28;20207;-69
2022/07/05 07:14:56;;;;;;;0.50;0.50;;;19.10;99.90;;;;;;5113669;28;20261;-71
2022/07/05 07:17:44;;;;;;;0.60;0.60;;;19.10;99.90;;;;;;5114555;28;20244;-72
2022/07/05 07:20:33;;;;;;;0.50;0.50;;;19.10;99.90;;;;;;5115160;28;20195;-71
2022/07/05 07:23:21;;;;;;;0.50;0.50;;;19.20;99.90;;;;;;5115161;28;20679;-70
2022/07/05 07:26:10;;;;;;;0.50;0.50;;;19.20;99.90;;;;;;5106849;28;20595;-70
2022/07/05 07:28:58;;;;;;;0.50;0.50;;;19.40;99.90;;;;;;5102100;28;20207;-70
2022/07/05 07:31:46;;;;;;;0.63;0.55;;;19.50;99.90;;;;;;5113254;28;20337;-70
2022/07/05 07:34:34;;;;;;;0.40;0.40;;;19.60;99.90;;;;;;5114638;28;20204;-70
2022/07/05 07:37:24;;;;;;;0.60;0.60;;;19.70;99.90;;;;;;5110528;28;20308;-72
2022/07/05 07:40:12;;;;;;;0.60;0.60;;;19.70;99.90;;;;;;5114749;28;20626;-70
2022/07/05 07:43:00;;;;;;;0.50;0.50;;;19.70;99.90;;;;;;5113230;28;20199;-70
2022/07/05 07:45:49;;;;;;;0.40;0.40;;;19.80;99.90;;;;;;5109194;28;20621;-72
2022/07/05 07:48:37;;;;;;;0.40;0.40;;;19.80;99.90;;;;;;5094738;28;20200;-73
2022/07/05 07:51:25;;;;;;;0.40;0.40;;;19.90;99.90;;;;;;5096651;28;20203;-71
2022/07/05 07:54:15;;;;;;;0.50;0.50;;;19.90;99.90;;;;;;5092504;28;20206;-71
2022/07/05 07:57:04;;;;;;;0.50;0.50;;;20.00;99.90;;;;;;5102760;28;20272;-72
2022/07/05 07:59:53;;;;;;;0.75;0.73;;;20.00;99.90;;;;;;5104266;28;20210;-70
2022/07/05 08:02:41;;;;;;;0.73;0.73;;;20.00;99.90;;;;;;5102042;28;20285;-70
2022/07/05 08:05:29;;;;;;;0.40;0.40;;;20.00;99.90;;;;;;5107322;28;20212;-71
2022/07/05 08:08:17;;;;;;;0.52;0.52;;;20.10;99.90;;;;;;5091237;28;20192;-71
2022/07/05 08:11:07;;;;;;;0.50;0.50;;;20.10;99.90;;;;;;5102738;28;20243;-72
2022/07/05 08:13:55;;;;;;;0.60;0.60;;;20.20;99.90;;;;;;5110042;28;20188;-70
2022/07/05 08:16:44;;;;;;;0.50;0.50;;;20.30;99.90;;;;;;5096940;28;20265;-71
2022/07/05 08:22:44;;;;;;;0.90;0.90;;;20.50;99.90;;;;;;5084291;28;20200;-70
2022/07/05 08:25:32;;;;;;;0.50;0.50;;;20.60;99.90;;;;;;5105857;28;20222;-70
2022/07/05 08:28:21;;;;;;;0.50;0.50;;;20.60;99.90;;;;;;5095250;28;20208;-70
2022/07/05 08:31:09;;;;;;;0.60;0.60;;;20.70;99.90;;;;;;5091390;28;20208;-71
2022/07/05 08:33:58;;;;;;;0.60;0.60;;;20.70;99.90;;;;;;5092162;28;20243;-70
2022/07/05 08:36:47;;;;;;;0.40;0.40;;;20.70;99.90;;;;;;5091806;28;20216;-72
2022/07/05 08:39:35;;;;;;;0.50;0.50;;;20.80;99.90;;;;;;5104937;28;20715;-71
2022/07/05 08:42:25;;;;;;;0.55;0.55;;;20.70;99.90;;;;;;5101516;28;20204;-70
2022/07/05 08:45:13;;;;;;;0.50;0.50;;;20.80;99.90;;;;;;5111693;28;20215;-70
2022/07/05 08:48:03;;;;;;;0.50;0.50;;;20.90;99.90;;;;;;5100532;28;20215;-71
2022/07/05 08:50:52;;;;;;;0.50;0.50;;;20.90;99.90;;;;;;5092482;28;20219;-70
2022/07/05 08:53:46;;;;;;;0.85;0.85;;;21.00;99.90;;;;;;5092971;28;20204;-71
2022/07/05 08:56:36;;;;;;;0.90;0.90;;;21.10;99.90;;;;;;5092609;28;20692;-72
2022/07/05 08:59:44;;;;;;;0.45;0.45;;;21.10;99.90;;;;;;5092000;28;20684;-70
2022/07/05 09:02:33;;;;;;;0.50;0.50;;;21.10;99.90;;;;;;5092325;28;20261;-70
2022/07/05 09:05:24;;;;;;;9.45;1.30;;;21.00;99.90;;;;;;5092289;28;20251;-72
2022/07/05 09:08:20;;;;;;;0.45;0.45;;;21.00;99.90;;;;;;5092661;28;20665;-70
2022/07/05 09:11:10;;;;;;;0.50;0.50;;;21.10;99.90;;;;;;5097341;28;20266;-71
2022/07/05 09:13:58;;;;;;;0.65;0.60;;;21.20;99.90;;;;;;5102631;28;20280;-70
2022/07/05 09:17:07;;;;;;;0.50;0.50;;;21.30;99.90;;;;;;5112638;28;20762;-71
2022/07/05 09:20:11;;;;;;;0.40;0.40;;;21.40;99.90;;;;;;5098823;28;20336;-70
2022/07/05 09:23:00;;;;;;;0.40;0.40;;;21.50;99.90;;;;;;5091311;28;20207;-71
2022/07/05 09:25:48;;;;;;;0.60;0.60;;;21.60;99.90;;;;;;5091703;28;20293;-72
2022/07/05 09:28:36;;;;;;;0.60;0.60;;;21.70;99.90;;;;;;5099703;28;20196;-70
2022/07/05 09:31:32;;;;;;;0.60;0.60;;;21.70;99.90;;;;;;5107623;28;20200;-70
2022/07/05 09:34:21;;;;;;;1.25;0.60;;;21.70;99.90;;;;;;5112027;28;20199;-71
2022/07/05 09:37:11;;;;;;;0.50;0.50;;;21.70;99.90;;;;;;5111802;28;20283;-71
2022/07/05 09:39:59;;;;;;;0.50;0.50;;;21.70;99.90;;;;;;5110071;28;20672;-72
2022/07/05 09:42:48;;;;;;;0.75;0.75;;;21.80;99.90;;;;;;5111412;28;20203;-70
2022/07/05 09:45:52;;;;;;;0.50;0.50;;;22.00;99.90;;;;;;5103845;28;20838;-70
2022/07/05 09:48:52;;;;;;;0.60;0.60;;;22.00;99.90;;;;;;5106654;28;20207;-72
2022/07/05 09:51:50;;;;;;;0.50;0.50;;;22.00;99.90;;;;;;5111146;28;20698;-70
2022/07/05 09:55:01;;;;;;;0.50;0.50;;;22.10;99.90;;;;;;5109674;28;20214;-72
2022/07/05 09:57:50;;;;;;;0.50;0.50;;;22.10;99.90;;;;;;5091301;28;20184;-70
2022/07/05 10:00:38;;;;;;;1.08;1.08;;;22.20;99.90;;;;;;5095574;28;20200;-70
2022/07/05 10:03:27;;;;;;;0.50;0.50;;;22.20;99.90;;;;;;5088933;28;20216;-71
2022/07/05 10:06:15;;;;;;;0.50;0.50;;;22.30;99.90;;;;;;5089641;28;20227;-70
2022/07/05 10:09:04;;;;;;;1.20;1.20;;;22.50;99.90;;;;;;5090024;28;20238;-71
2022/07/05 10:11:54;;;;;;;0.60;0.60;;;22.60;99.90;;;;;;5092025;28;20200;-72
2022/07/05 10:14:43;;;;;;;0.50;0.50;;;22.80;99.90;;;;;;5091289;28;20227;-72
2022/07/05 10:17:35;;;;;;;0.50;0.50;;;22.90;99.90;;;;;;5088881;28;20762;-72
2022/07/05 10:20:26;;;;;;;0.45;0.45;;;22.90;99.90;;;;;;5089790;28;20200;-72
2022/07/05 10:23:16;;;;;;;0.50;0.50;;;22.70;99.90;;;;;;5090662;28;20219;-73
2022/07/05 10:26:06;;;;;;;0.60;0.60;;;22.70;99.90;;;;;;5091028;28;20224;-73
2022/07/05 10:28:57;;;;;;;0.60;0.60;;;22.80;99.90;;;;;;5090227;28;20629;-70
2022/07/05 10:31:49;;;;;;;0.65;0.65;;;23.20;99.90;;;;;;5092401;28;20199;-71
2022/07/05 10:34:39;;;;;;;1.35;1.30;;;23.60;99.90;;;;;;5110405;28;20203;-69
2022/07/05 10:37:46;;;;;;;0.40;0.40;;;23.80;99.90;;;;;;5110611;28;20210;-71
2022/07/05 10:40:36;;;;;;;1.02;0.93;;;24.00;99.90;;;;;;5090654;28;20204;-70
2022/07/05 10:43:25;;;;;;;0.75;0.60;;;24.10;99.40;;;;;;5091903;28;20316;-70
2022/07/05 10:46:33;;;;;;;0.50;0.50;;;24.30;99.30;;;;;;5091308;28;20220;-69
2022/07/05 10:49:21;;;;;;;0.70;0.70;;;24.50;98.90;;;;;;5106465;28;20211;-73
2022/07/05 10:52:23;;;;;;;0.40;0.40;;;24.60;96.90;;;;;;5106900;28;20204;-72
2022/07/05 10:55:22;;;;;;;0.50;0.50;;;24.10;96.40;;;;;;5109856;28;20309;-70
2022/07/05 10:58:30;;;;;;;0.73;0.52;;;23.80;97.20;;;;;;5103685;28;20203;-72
2022/07/05 11:01:47;;;;;;;0.50;0.50;;;23.80;97.10;;;;;;5110240;28;20707;-72
2022/07/05 11:04:38;;;;;;;1.88;1.27;;;23.80;97.10;;;;;;5110027;28;20206;-72
2022/07/05 11:07:58;;;;;;;0.50;0.50;;;23.80;96.50;;;;;;5111694;28;20242;-70
2022/07/05 11:11:10;;;;;;;0.40;0.40;;;23.80;96.80;;;;;;5112565;28;20199;-69
2022/07/05 11:14:01;;;;;;;0.50;0.50;;;24.20;96.70;;;;;;5113472;28;20207;-71
2022/07/05 11:17:11;;;;;;;1.10;1.10;;;24.20;94.50;;;;;;5112362;28;20258;-69
2022/07/05 11:20:28;;;;;;;0.57;0.57;;;24.30;95.00;;;;;;5096394;28;20245;-73
2022/07/05 11:23:27;;;;;;;0.60;0.60;;;24.50;93.90;;;;;;5096952;28;20197;-69
2022/07/05 11:26:18;;;;;;;1.40;0.77;;;24.70;94.30;;;;;;5101482;28;20277;-69
2022/07/05 11:29:06;;;;;;;0.50;0.50;;;24.80;92.80;;;;;;5117094;28;20241;-71
2022/07/05 11:32:08;;;;;;;0.50;0.50;;;24.70;93.20;;;;;;5121788;28;20203;-71
2022/07/05 11:35:11;;;;;;;0.70;0.70;;;24.50;93.30;;;;;;5108985;28;20199;-71
2022/07/05 11:38:07;;;;;;;1.17;1.17;;;24.20;94.20;;;;;;5107877;28;20655;-70
2022/07/05 11:41:16;;;;;;;0.40;0.40;;;24.20;94.40;;;;;;5111334;28;20256;-71
2022/07/05 11:44:06;;;;;;;0.50;0.50;;;24.30;94.80;;;;;;5100883;28;20200;-70
2022/07/05 11:46:55;;;;;;;0.40;0.40;;;24.50;94.40;;;;;;5101148;28;20453;-71
2022/07/05 11:49:55;;;;;;;0.50;0.50;;;24.80;93.40;;;;;;5098072;28;20199;-70
2022/07/05 11:52:43;;;;;;;0.40;0.40;;;25.10;93.30;;;;;;5095527;28;20196;-69
2022/07/05 11:55:31;;;;;;;0.60;0.60;;;25.30;92.80;;;;;;5084076;28;20228;-70
2022/07/05 11:58:20;;;;;;;0.70;0.70;;;25.30;93.20;;;;;;5099940;28;20199;-70
2022/07/05 12:01:08;;;;;;;0.50;0.50;;;25.50;92.00;;;;;;5098746;28;20249;-70
2022/07/05 12:03:57;;;;;;;1.95;0.50;;;25.60;90.60;;;;;;5104134;28;20637;-71
2022/07/05 12:06:48;;;;;;;1.58;1.05;;;25.40;90.00;;;;;;5107614;28;20306;-70
2022/07/05 12:12:47;;;;;;;1.20;0.70;;;25.20;90.00;;;;;;5110860;28;20203;-70
2022/07/05 12:15:36;;;;;;;0.40;0.40;;;25.20;89.90;;;;;;5103203;28;20384;-70
2022/07/05 12:18:24;;;;;;;0.40;0.40;;;25.10;90.00;;;;;;5099591;28;20222;-69
2022/07/05 12:21:14;;;;;;;0.70;0.70;;;25.20;91.00;;;;;;5094794;28;20278;-69
2022/07/05 12:24:04;;;;;;;0.40;0.40;;;25.30;91.40;;;;;;5102281;27;20192;-71
2022/07/05 12:26:53;;;;;;;0.50;0.50;;;25.60;90.20;;;;;;5113425;28;20223;-71
2022/07/05 12:29:42;;;;;;;0.40;0.40;;;25.80;90.30;;;;;;5110183;28;20227;-70
2022/07/05 12:32:30;;;;;;;0.40;0.40;;;25.70;88.50;;;;;;5107737;28;20664;-71
2022/07/05 12:35:27;;;;;;;0.70;0.70;;;25.40;86.90;;;;;;5113960;28;20234;-68
2022/07/05 12:38:18;;;;;;;0.50;0.50;;;25.20;88.50;;;;;;5112864;28;20711;-70
2022/07/05 12:41:08;;;;;;;0.50;0.50;;;25.20;90.00;;;;;;5099551;28;20231;-69
2022/07/05 12:44:01;;;;;;;0.40;0.40;;;25.40;88.20;;;;;;5113197;28;20233;-72
2022/07/05 12:46:50;;;;;;;0.50;0.50;;;26.40;88.20;;;;;;5103709;28;20231;-67
2022/07/05 12:49:53;;;;;;;0.73;0.65;;;27.60;82.90;;;;;;5106282;28;20291;-68
2022/07/05 12:52:59;;;;;;;0.40;0.40;;;28.60;78.50;;;;;;5088690;28;20199;-68
2022/07/05 12:58:56;;;;;;;0.43;0.43;;;32.00;70.30;;;;;;5102136;28;20203;-68
2022/07/05 13:01:44;;;;;;;0.82;0.75;;;32.80;64.90;;;;;;5107196;28;20211;-68
2022/07/05 13:04:33;;;;;;;0.65;0.50;;;32.00;64.10;;;;;;5106091;28;21971;-69
2022/07/05 13:07:26;;;;;;;0.50;0.50;;;32.10;62.00;;;;;;5106439;28;20746;-69
2022/07/05 13:10:31;;;;;;;0.40;0.40;;;30.60;63.70;;;;;;5105577;28;20196;-68
2022/07/05 13:13:27;;;;;;;0.90;0.90;;;30.80;64.50;;;;;;5105195;28;20195;-68
2022/07/05 13:16:17;;;;;;;0.50;0.50;;;31.60;62.20;;;;;;5106190;27;20218;-68
2022/07/05 13:19:11;;;;;;;1.02;1.02;;;30.20;64.20;;;;;;5113509;28;20218;-69
2022/07/05 13:21:59;;;;;;;0.40;0.40;;;29.70;64.90;;;;;;5111975;27;20621;-69
2022/07/05 13:24:47;;;;;;;0.50;0.50;;;30.20;64.10;;;;;;5108781;28;20661;-69
2022/07/05 13:27:36;;;;;;;1.63;0.75;;;32.00;61.70;;;;;;5110125;28;20203;-69
2022/07/05 13:30:24;;;;;;;0.70;0.70;;;33.70;58.50;;;;;;5108868;28;20211;-68
2022/07/05 13:33:13;;;;;;;0.40;0.40;;;33.70;56.60;;;;;;5110328;28;20208;-70
2022/07/05 13:36:01;;;;;;;0.40;0.40;;;34.60;56.00;;;;;;5111441;28;20351;-69
2022/07/05 13:38:50;;;;;;;1.02;0.73;;;36.50;53.70;;;;;;5111308;28;20675;-70
2022/07/05 13:41:38;;;;;;;0.40;0.40;;;36.20;50.90;;;;;;5110765;28;20199;-70
2022/07/05 13:44:26;;;;;;;0.50;0.50;;;35.90;51.10;;;;;;5111189;28;20199;-70
2022/07/05 13:47:14;;;;;;;0.50;0.50;;;37.40;50.40;;;;;;5111904;28;20195;-69
2022/07/05 13:53:10;;;;;;;0.50;0.50;;;38.80;47.80;;;;;;5111235;28;20584;-70
2022/07/05 13:55:58;;;;;;;0.40;0.40;;;38.90;45.90;;;;;;5100684;28;20739;-71
2022/07/05 13:58:46;;;;;;;0.60;0.60;;;36.90;47.60;;;;;;5112004;28;20199;-70
2022/07/05 14:01:34;;;;;;;0.40;0.40;;;34.60;49.80;;;;;;5106831;28;20967;-70
2022/07/05 14:04:25;;;;;;;0.40;0.40;;;33.50;50.90;;;;;;5103827;28;20199;-69
2022/07/05 14:07:14;;;;;;;0.43;0.43;;;34.20;50.90;;;;;;5096117;28;20280;-69
2022/07/05 14:10:02;;;;;;;0.40;0.40;;;35.50;48.90;;;;;;5091338;28;20696;-70
2022/07/05 14:12:51;;;;;;;0.50;0.50;;;34.50;48.90;;;;;;5105877;28;20244;-70
2022/07/05 14:15:39;;;;;;;0.45;0.45;;;33.70;50.10;;;;;;5106812;28;20230;-70
2022/07/05 14:18:27;;;;;;;0.60;0.60;;;32.90;51.90;;;;;;5105323;28;20246;-69
2022/07/05 14:21:16;;;;;;;0.77;0.77;;;32.80;51.40;;;;;;5103340;28;20227;-69
2022/07/05 14:24:06;;;;;;;0.47;0.47;;;33.20;51.10;;;;;;5101430;28;20207;-69
2022/07/05 14:26:54;;;;;;;0.70;0.70;;;34.90;50.00;;;;;;5097095;28;20212;-69
2022/07/05 14:29:42;;;;;;;0.50;0.50;;;37.00;47.70;;;;;;5108368;28;20219;-69
2022/07/05 14:32:31;;;;;;;0.50;0.50;;;35.80;47.00;;;;;;5110865;28;20196;-69
2022/07/05 14:35:19;;;;;;;0.60;0.60;;;35.10;48.10;;;;;;5109626;28;20219;-69
2022/07/05 14:38:08;;;;;;;0.40;0.40;;;35.40;47.50;;;;;;5108843;28;20199;-70
2022/07/05 14:40:58;;;;;;;0.50;0.50;;;36.50;47.00;;;;;;5108527;28;20252;-70
2022/07/05 14:43:46;;;;;;;0.40;0.40;;;36.30;46.70;;;;;;5109483;28;20203;-70
2022/07/05 14:46:34;;;;;;;0.82;0.82;;;36.50;47.00;;;;;;5109070;28;20232;-69
2022/07/05 14:49:22;;;;;;;0.40;0.40;;;35.80;46.10;;;;;;5091224;28;20379;-70
2022/07/05 14:52:10;;;;;;;0.90;0.90;;;35.00;47.20;;;;;;5108195;28;20198;-70
2022/07/05 14:54:59;;;;;;;0.45;0.45;;;34.20;48.40;;;;;;5106919;28;21393;-69
2022/07/05 14:57:49;;;;;;;0.40;0.40;;;34.00;47.90;;;;;;5090802;28;20203;-69
2022/07/05 15:00:37;;;;;;;0.40;0.40;;;32.60;49.00;;;;;;5090570;28;20229;-69
2022/07/05 15:03:26;;;;;;;0.47;0.47;;;30.70;51.70;;;;;;5091489;28;20224;-69
2022/07/05 15:06:14;;;;;;;0.50;0.50;;;30.30;52.60;;;;;;5092617;28;20212;-69